Time;durP1;ratioP1;P1;durP2;ratioP2;P2;SDS_P1;SDS_P2;PMS_P1;PMS_P2;Temp;Humidity;BMP_temperature;BMP_pressure;BME280_temperature;BME280_humidity;BME280_pressure;Samples;Min_cycle;Max_cycle;Signal;HPM_P1;HPM_P2
2022/10/25 00:01:28;;;;;;;17.75;6.78;;;13.20;99.90;;;;;;5052615;28;20048;-72
2022/10/25 00:03:54;;;;;;;15.57;6.72;;;13.10;99.90;;;;;;5051607;28;20402;-71
2022/10/25 00:06:20;;;;;;;13.57;6.85;;;13.10;99.90;;;;;;5052489;28;20049;-71
2022/10/25 00:08:46;;;;;;;23.33;7.72;;;13.10;99.90;;;;;;5049630;28;20545;-76
2022/10/25 00:11:42;;;;;;;16.65;7.68;;;13.10;99.90;;;;;;5033158;28;20053;-72
2022/10/25 00:14:08;;;;;;;13.80;7.38;;;13.10;99.90;;;;;;5042515;28;20060;-72
2022/10/25 00:16:36;;;;;;;15.80;7.50;;;13.10;99.90;;;;;;5084440;28;20061;-71
2022/10/25 00:19:03;;;;;;;14.35;6.90;;;13.10;99.90;;;;;;5050249;28;20131;-72
2022/10/25 00:21:30;;;;;;;17.15;7.90;;;13.10;99.90;;;;;;5052197;28;20097;-72
2022/10/25 00:23:55;;;;;;;15.85;6.88;;;13.10;99.90;;;;;;5049312;28;20766;-71
2022/10/25 00:26:21;;;;;;;18.40;7.43;;;13.00;99.90;;;;;;5051992;28;20174;-72
2022/10/25 00:28:47;;;;;;;15.60;7.05;;;13.00;99.90;;;;;;5051866;28;20053;-76
2022/10/25 00:31:15;;;;;;;13.82;6.72;;;12.90;99.90;;;;;;5051816;28;20060;-72
2022/10/25 00:33:42;;;;;;;17.63;6.05;;;12.90;99.90;;;;;;5050934;28;20056;-73
2022/10/25 00:36:11;;;;;;;14.02;6.93;;;12.80;99.90;;;;;;5051025;28;20044;-71
2022/10/25 00:38:38;;;;;;;14.60;7.20;;;12.70;99.90;;;;;;5050416;28;20064;-74
2022/10/25 00:41:04;;;;;;;16.02;6.60;;;12.70;99.90;;;;;;5050391;28;20048;-71
2022/10/25 00:43:36;;;;;;;13.13;5.97;;;12.60;99.90;;;;;;5051811;28;20138;-74
2022/10/25 00:46:09;;;;;;;15.25;6.70;;;12.60;99.90;;;;;;5051538;28;20044;-72
2022/10/25 00:48:35;;;;;;;17.25;7.63;;;12.60;99.90;;;;;;5051453;28;20053;-75
2022/10/25 00:51:01;;;;;;;21.23;7.25;;;12.60;99.90;;;;;;5050716;28;20060;-73
2022/10/25 00:53:34;;;;;;;16.92;7.38;;;12.50;99.90;;;;;;5083249;28;20374;-74
2022/10/25 00:56:23;;;;;;;20.77;6.93;;;12.50;99.90;;;;;;5049450;28;20037;-71
2022/10/25 00:58:53;;;;;;;18.05;7.15;;;12.50;99.90;;;;;;5051218;28;20045;-76
2022/10/25 01:01:20;;;;;;;23.08;8.40;;;12.50;99.90;;;;;;5050569;28;20084;-71
2022/10/25 01:03:48;;;;;;;18.48;7.47;;;12.40;99.90;;;;;;5046347;28;20052;-71
2022/10/25 01:06:20;;;;;;;19.50;6.85;;;12.40;99.90;;;;;;5030931;28;20057;-71
2022/10/25 01:08:48;;;;;;;17.45;7.65;;;12.40;99.90;;;;;;5073969;28;20056;-71
2022/10/25 01:11:14;;;;;;;23.73;7.85;;;12.50;99.90;;;;;;5049025;28;20400;-72
2022/10/25 01:13:40;;;;;;;19.83;7.70;;;12.50;99.90;;;;;;5051313;28;20478;-72
2022/10/25 01:16:41;;;;;;;18.38;6.97;;;12.50;99.90;;;;;;5048009;28;20044;-72
2022/10/25 01:19:28;;;;;;;18.85;6.72;;;12.60;99.90;;;;;;5047394;28;20060;-71
2022/10/25 01:22:06;;;;;;;19.50;6.72;;;12.60;99.90;;;;;;5050816;28;20041;-75
2022/10/25 01:25:12;;;;;;;18.13;6.55;;;12.60;99.90;;;;;;5049180;28;20075;-75
2022/10/25 01:27:40;;;;;;;14.85;6.22;;;12.70;99.90;;;;;;5051048;28;20110;-72
2022/10/25 01:30:45;;;;;;;15.02;6.15;;;12.70;99.90;;;;;;5045679;28;20075;-72
2022/10/25 01:33:29;;;;;;;15.73;6.45;;;12.70;99.90;;;;;;5047761;28;20045;-71
2022/10/25 01:35:58;;;;;;;16.08;6.13;;;12.60;99.90;;;;;;5049705;28;20498;-76
2022/10/25 01:39:05;;;;;;;15.55;5.85;;;12.60;99.90;;;;;;5048714;28;20105;-72
2022/10/25 01:42:05;;;;;;;16.97;5.33;;;12.60;99.90;;;;;;5044176;28;20091;-72
2022/10/25 01:45:09;;;;;;;13.57;5.53;;;12.50;99.90;;;;;;5050767;28;20287;-74
2022/10/25 01:47:42;;;;;;;15.35;5.57;;;12.40;99.90;;;;;;5021464;28;20061;-72
2022/10/25 01:50:23;;;;;;;12.07;5.75;;;12.40;99.90;;;;;;5048326;28;20071;-72
2022/10/25 01:52:48;;;;;;;14.50;5.78;;;12.30;99.90;;;;;;5049531;28;20127;-72
2022/10/25 01:55:15;;;;;;;18.60;6.30;;;12.30;99.90;;;;;;5046240;28;20222;-71
2022/10/25 01:57:51;;;;;;;13.48;6.10;;;12.20;99.90;;;;;;5049432;28;20059;-72
2022/10/25 02:00:22;;;;;;;12.63;4.90;;;12.20;99.90;;;;;;5049492;28;20142;-71
2022/10/25 02:03:10;;;;;;;15.95;5.57;;;12.20;99.90;;;;;;5050247;28;20045;-72
2022/10/25 02:05:53;;;;;;;14.45;5.88;;;12.10;99.90;;;;;;5049546;28;20040;-72
2022/10/25 02:08:45;;;;;;;13.05;5.03;;;12.10;99.90;;;;;;5048798;28;20049;-72
2022/10/25 02:11:29;;;;;;;21.48;6.03;;;12.10;99.90;;;;;;5048858;28;20056;-72
2022/10/25 02:14:24;;;;;;;14.98;5.57;;;12.00;99.90;;;;;;5049807;28;20049;-76
2022/10/25 02:17:18;;;;;;;14.75;6.20;;;12.00;99.90;;;;;;5040182;28;20144;-71
2022/10/25 02:19:53;;;;;;;17.70;5.75;;;12.00;99.90;;;;;;5049561;28;20060;-71
2022/10/25 02:22:24;;;;;;;17.70;7.32;;;12.00;99.90;;;;;;5049153;28;20130;-72
2022/10/25 02:24:52;;;;;;;14.52;6.63;;;12.00;99.90;;;;;;5044734;28;20932;-72
2022/10/25 02:27:22;;;;;;;19.45;7.75;;;12.10;99.90;;;;;;5048979;28;20525;-71
2022/10/25 02:29:49;;;;;;;23.83;8.02;;;12.20;99.90;;;;;;5049934;28;20151;-72
2022/10/25 02:32:14;;;;;;;21.90;7.63;;;12.30;99.90;;;;;;5049149;28;20060;-71
2022/10/25 02:34:40;;;;;;;17.40;7.25;;;12.30;99.90;;;;;;5049463;28;20060;-73
2022/10/25 02:37:06;;;;;;;19.42;7.35;;;12.40;99.90;;;;;;5047891;28;20045;-74
2022/10/25 02:39:33;;;;;;;18.45;7.03;;;12.50;99.90;;;;;;5046670;28;20048;-75
2022/10/25 02:42:02;;;;;;;16.92;7.45;;;12.50;99.90;;;;;;5049470;28;20055;-76
2022/10/25 02:44:28;;;;;;;18.75;8.00;;;12.50;99.90;;;;;;5049824;28;20111;-71
2022/10/25 02:46:53;;;;;;;19.73;8.05;;;12.60;99.90;;;;;;5046150;28;20580;-72
2022/10/25 02:49:19;;;;;;;19.40;8.85;;;12.60;99.90;;;;;;5048583;28;20053;-73
2022/10/25 02:51:45;;;;;;;20.70;7.63;;;12.60;99.90;;;;;;5049872;28;20524;-71
2022/10/25 02:54:10;;;;;;;18.85;8.32;;;12.70;99.90;;;;;;5040556;28;20824;-74
2022/10/25 02:56:37;;;;;;;21.25;7.97;;;12.70;99.90;;;;;;5029545;28;20033;-72
2022/10/25 02:59:03;;;;;;;18.65;7.72;;;12.80;99.90;;;;;;5041313;28;20139;-76
2022/10/25 03:01:28;;;;;;;20.27;7.40;;;12.80;99.90;;;;;;5049666;28;20083;-72
2022/10/25 03:03:54;;;;;;;22.20;8.23;;;12.90;99.90;;;;;;5048789;28;20056;-74
2022/10/25 03:06:20;;;;;;;18.35;7.38;;;12.90;99.90;;;;;;5048941;28;20059;-73
2022/10/25 03:08:46;;;;;;;20.33;8.10;;;12.90;99.90;;;;;;5048188;28;20045;-73
2022/10/25 03:11:14;;;;;;;21.80;7.10;;;13.00;99.90;;;;;;5048215;28;20040;-72
2022/10/25 03:13:39;;;;;;;16.95;7.78;;;13.00;99.90;;;;;;5049576;28;20051;-71
2022/10/25 03:16:06;;;;;;;14.68;7.28;;;13.00;99.90;;;;;;5046235;28;20068;-71
2022/10/25 03:18:32;;;;;;;17.42;7.13;;;12.90;99.90;;;;;;5044880;28;20061;-72
2022/10/25 03:20:59;;;;;;;16.42;7.22;;;12.90;99.90;;;;;;5027933;28;20072;-71
2022/10/25 03:23:26;;;;;;;16.08;7.78;;;12.90;99.90;;;;;;5041350;28;20037;-72
2022/10/25 03:25:53;;;;;;;20.10;7.05;;;12.90;99.90;;;;;;5047077;28;20467;-73
2022/10/25 03:28:18;;;;;;;17.10;7.68;;;13.00;99.90;;;;;;5048714;28;20050;-72
2022/10/25 03:30:44;;;;;;;20.92;6.88;;;12.90;99.90;;;;;;5049302;28;20055;-71
2022/10/25 03:33:10;;;;;;;16.23;6.95;;;12.90;99.90;;;;;;5048398;28;20049;-71
2022/10/25 03:35:35;;;;;;;17.67;6.72;;;12.90;99.90;;;;;;5048293;28;20562;-71
2022/10/25 03:38:01;;;;;;;14.63;7.25;;;12.90;99.90;;;;;;5046537;28;20457;-76
2022/10/25 03:40:27;;;;;;;16.33;6.55;;;12.90;99.90;;;;;;5047596;28;20135;-73
2022/10/25 03:42:52;;;;;;;18.83;7.20;;;12.90;99.90;;;;;;5049302;28;20052;-72
2022/10/25 03:45:18;;;;;;;18.73;7.40;;;12.90;99.90;;;;;;5048646;28;20124;-73
2022/10/25 03:47:44;;;;;;;19.88;7.75;;;12.90;99.90;;;;;;5050325;28;20092;-71
2022/10/25 03:50:10;;;;;;;20.08;7.32;;;13.00;99.90;;;;;;5051879;28;20140;-71
2022/10/25 03:52:36;;;;;;;15.68;6.82;;;13.00;99.90;;;;;;5051993;28;20041;-71
2022/10/25 03:55:03;;;;;;;20.02;7.22;;;13.00;99.90;;;;;;5051248;28;20047;-76
2022/10/25 03:57:29;;;;;;;16.42;6.53;;;13.00;99.90;;;;;;5050305;28;20515;-72
2022/10/25 03:59:56;;;;;;;18.33;7.18;;;13.00;99.90;;;;;;5052534;28;20099;-71
2022/10/25 04:02:22;;;;;;;18.10;8.25;;;13.00;99.90;;;;;;5050808;28;20102;-71
2022/10/25 04:04:48;;;;;;;22.25;7.05;;;13.00;99.90;;;;;;5052210;28;20045;-71
2022/10/25 04:07:13;;;;;;;15.18;6.85;;;13.00;99.90;;;;;;5051248;28;20041;-71
2022/10/25 04:09:39;;;;;;;18.42;6.38;;;13.00;99.90;;;;;;5046020;28;20042;-72
2022/10/25 04:12:05;;;;;;;23.08;7.60;;;13.00;99.90;;;;;;5030904;28;20052;-76
2022/10/25 04:14:31;;;;;;;24.08;7.43;;;13.00;99.90;;;;;;5032370;28;20037;-73
2022/10/25 04:16:56;;;;;;;20.83;7.85;;;13.00;99.90;;;;;;5032143;28;20423;-72
2022/10/25 04:19:22;;;;;;;16.80;6.85;;;13.00;99.90;;;;;;5042853;28;20207;-73
2022/10/25 04:21:48;;;;;;;19.98;6.95;;;13.00;99.90;;;;;;5036454;28;20443;-71
2022/10/25 04:24:13;;;;;;;16.55;7.35;;;13.00;99.90;;;;;;5035433;28;20053;-70
2022/10/25 04:26:39;;;;;;;15.65;6.53;;;13.00;99.90;;;;;;5052079;28;20049;-72
2022/10/25 04:29:05;;;;;;;20.15;6.75;;;13.00;99.90;;;;;;5051807;28;20083;-76
2022/10/25 04:31:31;;;;;;;;;;;13.00;99.90;;;;;;5052282;28;20153;-71
2022/10/25 04:33:58;;;;;;;14.88;6.82;;;13.10;99.90;;;;;;5050280;28;19932;-71
2022/10/25 04:36:24;;;;;;;21.45;6.65;;;13.10;99.90;;;;;;5049897;28;20422;-72
2022/10/25 04:38:50;;;;;;;16.08;6.55;;;13.10;99.90;;;;;;5049813;28;20480;-74
2022/10/25 04:41:17;;;;;;;18.95;6.65;;;13.20;99.90;;;;;;5049334;28;20057;-73
2022/10/25 04:43:43;;;;;;;20.48;7.85;;;13.20;99.90;;;;;;5051531;28;20119;-72
2022/10/25 04:46:09;;;;;;;14.82;7.53;;;13.20;99.90;;;;;;5065873;28;20037;-76
2022/10/25 04:48:39;;;;;;;19.42;7.47;;;13.10;99.90;;;;;;5051393;28;20045;-74
2022/10/25 04:51:06;;;;;;;16.00;6.20;;;13.10;99.90;;;;;;5050055;28;20045;-76
2022/10/25 04:53:32;;;;;;;20.60;6.63;;;13.10;99.90;;;;;;5050478;28;20091;-71
2022/10/25 04:55:59;;;;;;;16.20;7.13;;;13.10;99.90;;;;;;5049361;28;20049;-71
2022/10/25 04:58:25;;;;;;;16.67;7.82;;;13.10;99.90;;;;;;5050553;28;20127;-71
2022/10/25 05:00:52;;;;;;;14.52;6.40;;;13.00;99.90;;;;;;5050914;28;20048;-71
2022/10/25 05:03:18;;;;;;;19.52;6.13;;;13.00;99.90;;;;;;5037132;28;20084;-71
2022/10/25 05:05:44;;;;;;;;;;;12.90;99.90;;;;;;5036442;28;20406;-71
2022/10/25 05:08:09;;;;;;;18.55;5.85;;;12.90;99.90;;;;;;5049297;28;19952;-76
2022/10/25 05:10:35;;;;;;;21.45;7.13;;;12.80;99.90;;;;;;5049613;28;20623;-73
2022/10/25 05:13:01;;;;;;;17.38;7.07;;;12.80;99.90;;;;;;5051255;28;20148;-72
2022/10/25 05:15:27;;;;;;;;;;;12.70;99.90;;;;;;5049561;28;20555;-72
2022/10/25 05:17:59;;;;;;;17.30;6.97;;;12.70;99.90;;;;;;5051014;28;20011;-71
2022/10/25 05:20:25;;;;;;;20.70;6.30;;;12.60;99.90;;;;;;5050184;28;20127;-71
2022/10/25 05:22:51;;;;;;;18.70;7.22;;;12.60;99.90;;;;;;5050089;28;20048;-73
2022/10/25 05:25:17;;;;;;;21.83;7.38;;;12.60;99.90;;;;;;5047905;28;20740;-73
2022/10/25 05:27:43;;;;;;;26.08;6.80;;;12.50;99.90;;;;;;5051341;28;20059;-72
2022/10/25 05:30:09;;;;;;;19.33;6.93;;;12.50;99.90;;;;;;5050778;28;20474;-76
2022/10/25 05:32:35;;;;;;;15.43;6.47;;;12.50;99.90;;;;;;5047303;28;20048;-71
2022/10/25 05:35:01;;;;;;;16.83;6.70;;;12.50;99.90;;;;;;5048851;28;20103;-73
2022/10/25 05:37:27;;;;;;;17.20;6.43;;;12.50;99.90;;;;;;5029596;28;20487;-74
2022/10/25 05:39:52;;;;;;;15.80;6.40;;;12.50;99.90;;;;;;5042790;28;20049;-71
2022/10/25 05:42:18;;;;;;;20.38;5.78;;;12.50;99.90;;;;;;5050267;28;20064;-72
2022/10/25 05:44:43;;;;;;;17.27;5.70;;;12.40;99.90;;;;;;5050654;28;20045;-73
2022/10/25 05:47:10;;;;;;;13.60;5.70;;;12.50;99.90;;;;;;5050445;28;20079;-75
2022/10/25 05:49:39;;;;;;;16.98;5.65;;;12.60;99.90;;;;;;5049089;28;20045;-73
2022/10/25 05:52:08;;;;;;;18.05;6.18;;;12.60;99.90;;;;;;5050460;28;20127;-75
2022/10/25 05:54:34;;;;;;;12.48;4.78;;;12.60;99.90;;;;;;5047142;28;20105;-73
2022/10/25 05:56:59;;;;;;;17.45;6.00;;;12.60;99.90;;;;;;5032012;28;20045;-72
2022/10/25 05:59:25;;;;;;;15.13;5.10;;;12.60;99.90;;;;;;5048485;28;20040;-71
2022/10/25 06:01:51;;;;;;;14.30;5.80;;;12.60;99.90;;;;;;5050079;28;20045;-73
2022/10/25 06:04:17;;;;;;;14.10;5.18;;;12.50;99.90;;;;;;5049307;28;20055;-71
2022/10/25 06:06:44;;;;;;;17.65;5.07;;;12.50;99.90;;;;;;5050252;28;20045;-71
2022/10/25 06:09:11;;;;;;;13.48;5.47;;;12.50;99.90;;;;;;5046508;28;20072;-74
2022/10/25 06:11:38;;;;;;;11.93;4.85;;;12.40;99.90;;;;;;5047373;28;20517;-68
2022/10/25 06:14:05;;;;;;;18.25;5.28;;;12.40;99.90;;;;;;5050015;28;20055;-67
2022/10/25 06:16:31;;;;;;;11.77;5.03;;;12.50;99.90;;;;;;5049790;28;20753;-66
2022/10/25 06:18:57;;;;;;;25.33;6.32;;;12.60;99.90;;;;;;5050172;28;20179;-69
2022/10/25 06:21:27;;;;;;;15.60;4.88;;;12.60;99.90;;;;;;5049783;28;20120;-71
2022/10/25 06:23:54;;;;;;;17.08;5.68;;;12.70;99.90;;;;;;5048831;28;20048;-73
2022/10/25 06:26:22;;;;;;;15.52;5.22;;;12.70;99.90;;;;;;5048396;28;20490;-73
2022/10/25 06:28:51;;;;;;;13.55;4.97;;;12.70;99.90;;;;;;5050572;28;20060;-71
2022/10/25 06:31:18;;;;;;;15.32;4.95;;;12.70;99.90;;;;;;5048408;28;20052;-77
2022/10/25 06:33:45;;;;;;;21.60;6.05;;;12.70;99.90;;;;;;5050332;28;20048;-72
2022/10/25 06:36:30;;;;;;;17.45;5.35;;;12.70;99.90;;;;;;5049025;28;20126;-74
2022/10/25 06:38:56;;;;;;;16.80;5.53;;;12.60;99.90;;;;;;5047602;28;20044;-72
2022/10/25 06:41:25;;;;;;;16.38;5.70;;;12.60;99.90;;;;;;5048506;28;20045;-72
2022/10/25 06:43:50;;;;;;;21.05;5.72;;;12.60;99.90;;;;;;5050392;28;20048;-71
2022/10/25 06:46:19;;;;;;;16.33;5.55;;;12.50;99.90;;;;;;5050194;28;20044;-78
2022/10/25 06:48:45;;;;;;;18.73;5.80;;;12.60;99.90;;;;;;5049914;28;20136;-75
2022/10/25 06:51:10;;;;;;;19.45;5.93;;;12.60;99.90;;;;;;5050406;28;20588;-73
2022/10/25 06:53:37;;;;;;;22.15;6.20;;;12.60;99.90;;;;;;5046894;28;20520;-74
2022/10/25 06:56:05;;;;;;;15.30;5.72;;;12.60;99.90;;;;;;5048056;28;20128;-74
2022/10/25 06:58:33;;;;;;;17.63;6.32;;;12.70;99.90;;;;;;5048591;28;20076;-74
2022/10/25 07:01:00;;;;;;;17.58;5.47;;;12.70;99.90;;;;;;5050510;28;20132;-73
2022/10/25 07:03:29;;;;;;;13.77;5.35;;;12.80;99.90;;;;;;5049544;28;20402;-74
2022/10/25 07:05:58;;;;;;;22.75;6.55;;;12.80;99.90;;;;;;5048976;28;20490;-73
2022/10/25 07:08:24;;;;;;;18.40;6.05;;;12.90;99.90;;;;;;5048515;28;20059;-73
2022/10/25 07:10:54;;;;;;;21.45;5.80;;;12.90;99.90;;;;;;5048911;28;20403;-73
2022/10/25 07:13:20;;;;;;;18.63;5.65;;;13.00;99.90;;;;;;5049193;28;20521;-78
2022/10/25 07:15:46;;;;;;;14.73;4.97;;;13.00;99.90;;;;;;5046550;28;20045;-74
2022/10/25 07:18:11;;;;;;;19.27;7.03;;;13.00;99.90;;;;;;5031697;28;20092;-78
2022/10/25 07:20:37;;;;;;;18.60;5.95;;;13.00;99.90;;;;;;5047462;28;20053;-73
2022/10/25 07:23:03;;;;;;;19.10;6.40;;;13.00;99.90;;;;;;5049839;28;20486;-75
2022/10/25 07:25:29;;;;;;;15.40;5.05;;;13.00;99.90;;;;;;5052088;28;20056;-74
2022/10/25 07:27:56;;;;;;;21.30;5.60;;;13.10;99.90;;;;;;5053547;28;20120;-74
2022/10/25 07:30:21;;;;;;;;;;;13.10;99.90;;;;;;5053200;28;20478;-80
2022/10/25 07:32:47;;;;;;;13.48;5.13;;;13.10;99.90;;;;;;5053850;28;19928;-71
2022/10/25 07:35:13;;;;;;;21.35;5.97;;;13.20;99.90;;;;;;5023892;28;20037;-73
2022/10/25 07:37:38;;;;;;;15.07;5.25;;;13.20;99.90;;;;;;5043537;28;20052;-73
2022/10/25 07:40:05;;;;;;;19.25;5.93;;;13.30;99.90;;;;;;5043778;28;20437;-72
2022/10/25 07:42:30;;;;;;;18.85;5.68;;;13.30;99.90;;;;;;5042100;28;20059;-73
2022/10/25 07:44:56;;;;;;;25.90;6.30;;;13.30;99.90;;;;;;5047927;28;20049;-73
2022/10/25 07:47:22;;;;;;;16.63;6.10;;;13.40;99.90;;;;;;5044204;28;20049;-78
2022/10/25 07:49:47;;;;;;;17.38;6.07;;;13.50;99.90;;;;;;5048253;28;20040;-72
2022/10/25 07:52:13;;;;;;;16.83;5.65;;;13.50;99.90;;;;;;5044684;28;20117;-72
2022/10/25 07:54:38;;;;;;;14.52;6.22;;;13.60;99.90;;;;;;5048467;28;20081;-75
2022/10/25 07:57:05;;;;;;;24.15;6.07;;;13.60;99.90;;;;;;5046474;28;20050;-74
2022/10/25 07:59:31;;;;;;;16.25;5.80;;;13.60;99.90;;;;;;5040419;28;20083;-71
2022/10/25 08:01:57;;;;;;;18.35;6.20;;;13.70;99.90;;;;;;5039828;28;20554;-73
2022/10/25 08:04:23;;;;;;;20.15;5.75;;;13.70;99.90;;;;;;5047101;28;20120;-77
2022/10/25 08:06:48;;;;;;;15.32;6.18;;;13.80;99.90;;;;;;5063094;28;20123;-72
2022/10/25 08:09:14;;;;;;;18.42;6.60;;;13.80;99.90;;;;;;5043276;28;20049;-74
2022/10/25 08:11:40;;;;;;;17.15;6.05;;;13.90;99.90;;;;;;5038088;28;20125;-73
2022/10/25 08:14:05;;;;;;;17.50;6.82;;;14.00;99.90;;;;;;5037535;28;20045;-72
2022/10/25 08:16:31;;;;;;;18.58;6.40;;;14.00;99.90;;;;;;5063818;28;20057;-73
2022/10/25 08:18:57;;;;;;;19.50;6.97;;;14.00;99.90;;;;;;5030843;28;20053;-73
2022/10/25 08:21:22;;;;;;;16.75;6.47;;;14.00;99.90;;;;;;5042517;28;20049;-78
2022/10/25 08:23:48;;;;;;;17.30;5.90;;;14.10;99.90;;;;;;5048619;28;20119;-73
2022/10/25 08:26:14;;;;;;;;;;;14.10;99.90;;;;;;5065422;28;20061;-77
2022/10/25 08:28:40;;;;;;;19.75;7.22;;;14.20;99.90;;;;;;5034464;28;20010;-73
2022/10/25 08:31:05;;;;;;;20.40;6.28;;;14.30;99.90;;;;;;5050945;28;20044;-74
2022/10/25 08:33:31;;;;;;;15.38;6.55;;;14.30;99.90;;;;;;5035746;28;20041;-73
2022/10/25 08:36:01;;;;;;;;;;;14.40;99.90;;;;;;5031576;28;20046;-74
2022/10/25 08:38:27;;;;;;;18.02;7.07;;;14.40;99.90;;;;;;5030625;28;19971;-79
2022/10/25 08:41:13;;;;;;;14.48;6.00;;;14.40;99.90;;;;;;5030585;28;20072;-73
2022/10/25 08:44:15;;;;;;;15.68;6.10;;;14.30;99.90;;;;;;5031440;28;20049;-78
2022/10/25 08:46:58;;;;;;;18.90;6.93;;;14.30;99.90;;;;;;5053805;28;20066;-75
2022/10/25 08:49:50;;;;;;;12.48;5.72;;;14.40;99.90;;;;;;5033574;28;20051;-74
2022/10/25 08:52:30;;;;;;;13.35;6.38;;;14.50;99.90;;;;;;5040362;28;20541;-74
2022/10/25 08:54:59;;;;;;;15.90;5.85;;;14.50;99.90;;;;;;5037816;28;20042;-73
2022/10/25 08:57:29;;;;;;;15.55;6.50;;;14.50;99.90;;;;;;5036180;28;20056;-76
2022/10/25 09:00:10;;;;;;;15.50;6.03;;;14.50;99.90;;;;;;5047013;28;20046;-72
2022/10/25 09:02:40;;;;;;;14.82;6.57;;;14.50;99.90;;;;;;5030985;28;20049;-72
2022/10/25 09:05:15;;;;;;;16.45;5.35;;;14.60;99.90;;;;;;5031948;28;20090;-74
2022/10/25 09:08:03;;;;;;;14.00;6.00;;;14.60;99.90;;;;;;5034812;28;20099;-74
2022/10/25 09:10:49;;;;;;;14.50;5.18;;;14.70;99.90;;;;;;5049683;28;20049;-78
2022/10/25 09:13:27;;;;;;;17.97;5.80;;;14.80;99.90;;;;;;5050957;28;20048;-75
2022/10/25 09:15:58;;;;;;;17.00;6.10;;;14.80;99.90;;;;;;5046583;28;20128;-73
2022/10/25 09:18:42;;;;;;;13.07;5.43;;;14.90;99.90;;;;;;5045529;28;20056;-73
2022/10/25 09:21:16;;;;;;;11.93;5.05;;;15.00;99.90;;;;;;5063744;28;20395;-73
2022/10/25 09:24:06;;;;;;;20.02;5.95;;;15.10;99.90;;;;;;5029962;28;20402;-77
2022/10/25 09:26:57;;;;;;;13.70;5.25;;;15.20;99.90;;;;;;5038041;28;20064;-79
2022/10/25 09:29:35;;;;;;;16.48;6.10;;;15.40;99.90;;;;;;5050200;28;20044;-76
2022/10/25 09:32:06;;;;;;;11.68;4.63;;;15.40;99.90;;;;;;5048240;28;20479;-76
2022/10/25 09:34:32;;;;;;;17.63;5.40;;;15.50;99.90;;;;;;5049745;28;20477;-80
2022/10/25 09:37:11;;;;;;;13.30;5.00;;;15.40;99.90;;;;;;5049625;28;20041;-73
2022/10/25 09:39:41;;;;;;;15.77;5.20;;;15.50;99.90;;;;;;5047286;28;20049;-73
2022/10/25 09:42:16;;;;;;;16.83;4.65;;;15.50;99.90;;;;;;5049207;28;20052;-73
2022/10/25 09:44:53;;;;;;;15.55;5.38;;;15.50;99.90;;;;;;5047094;28;20053;-76
2022/10/25 09:47:41;;;;;;;12.23;4.30;;;15.50;99.90;;;;;;5046987;28;20044;-72
2022/10/25 09:50:30;;;;;;;9.07;3.97;;;15.40;99.90;;;;;;5046164;28;20072;-71
2022/10/25 09:53:10;;;;;;;10.57;4.03;;;15.40;99.90;;;;;;5046049;28;20048;-74
2022/10/25 09:56:00;;;;;;;14.00;4.22;;;15.30;99.90;;;;;;5045386;28;20048;-73
2022/10/25 09:58:52;;;;;;;10.75;4.55;;;15.30;99.90;;;;;;5048516;28;20044;-74
2022/10/25 10:01:25;;;;;;;11.52;4.60;;;15.30;99.90;;;;;;5046081;28;20052;-71
2022/10/25 10:03:52;;;;;;;7.85;3.42;;;15.30;99.90;;;;;;5045295;28;20051;-72
2022/10/25 10:06:23;;;;;;;12.35;4.05;;;15.30;99.90;;;;;;5046233;28;20076;-71
2022/10/25 10:09:10;;;;;;;14.35;3.72;;;15.40;99.90;;;;;;5039069;28;20506;-71
2022/10/25 10:11:37;;;;;;;8.13;3.75;;;15.40;99.90;;;;;;5044280;28;20128;-76
2022/10/25 10:14:13;;;;;;;8.90;3.45;;;15.50;99.90;;;;;;5049101;28;20045;-71
2022/10/25 10:16:50;;;;;;;16.83;4.00;;;15.50;99.90;;;;;;5046344;28;20056;-71
2022/10/25 10:19:22;;;;;;;10.20;3.05;;;15.50;99.90;;;;;;5045170;28;20057;-71
2022/10/25 10:21:51;;;;;;;5.65;2.65;;;15.50;99.90;;;;;;5047103;28;20043;-71
2022/10/25 10:24:45;;;;;;;7.65;3.30;;;15.50;99.90;;;;;;5046856;28;20045;-74
2022/10/25 10:27:23;;;;;;;8.15;3.10;;;15.60;99.90;;;;;;5046279;28;20061;-71
2022/10/25 10:30:08;;;;;;;11.40;3.75;;;15.80;99.90;;;;;;5045082;28;20044;-71
2022/10/25 10:32:36;;;;;;;9.75;2.90;;;15.80;99.90;;;;;;5048579;28;20055;-76
2022/10/25 10:35:05;;;;;;;14.07;3.35;;;15.80;99.90;;;;;;5047407;28;20040;-71
2022/10/25 10:37:32;;;;;;;8.70;2.60;;;15.80;99.90;;;;;;5046203;28;20052;-74
2022/10/25 10:40:23;;;;;;;12.10;3.20;;;15.70;99.90;;;;;;5041051;28;20727;-72
2022/10/25 10:42:49;;;;;;;8.60;3.38;;;15.60;99.90;;;;;;5048954;28;20050;-71
2022/10/25 10:45:17;;;;;;;8.93;2.50;;;15.60;99.90;;;;;;5045836;28;20119;-71
2022/10/25 10:47:49;;;;;;;10.55;3.47;;;15.70;99.90;;;;;;5029499;28;20057;-70
2022/10/25 10:50:24;;;;;;;9.73;3.17;;;15.70;99.90;;;;;;5048293;28;20627;-73
2022/10/25 10:53:03;;;;;;;8.05;3.13;;;15.70;99.90;;;;;;5047826;28;20477;-71
2022/10/25 10:55:42;;;;;;;8.45;2.70;;;15.80;99.90;;;;;;5045874;28;20504;-73
2022/10/25 10:58:15;;;;;;;10.73;3.15;;;15.90;99.90;;;;;;5035844;28;20551;-72
2022/10/25 11:00:52;;;;;;;8.38;2.50;;;16.00;99.90;;;;;;5046856;28;20049;-77
2022/10/25 11:03:57;;;;;;;8.60;2.95;;;16.00;99.90;;;;;;5043571;28;20112;-72
2022/10/25 11:06:32;;;;;;;6.25;2.28;;;16.10;99.90;;;;;;5018791;28;20072;-74
2022/10/25 11:09:11;;;;;;;6.95;2.50;;;16.20;99.90;;;;;;5046027;28;20063;-71
2022/10/25 11:11:41;;;;;;;6.63;2.17;;;16.20;99.90;;;;;;5036690;28;20052;-77
2022/10/25 11:14:15;;;;;;;11.90;2.35;;;16.20;99.90;;;;;;5038006;28;20045;-74
2022/10/25 11:17:05;;;;;;;7.20;1.80;;;16.10;99.90;;;;;;5043605;28;20060;-78
2022/10/25 11:19:49;;;;;;;8.55;2.47;;;16.10;99.90;;;;;;5044451;28;20067;-75
2022/10/25 11:22:41;;;;;;;8.20;2.58;;;16.40;99.90;;;;;;5058169;28;20128;-79
2022/10/25 11:25:17;;;;;;;5.57;2.15;;;16.60;99.90;;;;;;5054384;28;20049;-71
2022/10/25 11:28:22;;;;;;;5.10;2.40;;;16.60;99.90;;;;;;5050469;28;20095;-72
2022/10/25 11:31:13;;;;;;;11.18;2.67;;;16.50;99.90;;;;;;5047499;28;20503;-72
2022/10/25 11:34:03;;;;;;;6.80;2.08;;;16.50;99.90;;;;;;5051829;28;20482;-77
2022/10/25 11:37:01;;;;;;;5.82;2.13;;;16.80;99.90;;;;;;5050409;28;20048;-73
2022/10/25 11:39:29;;;;;;;5.93;2.00;;;17.70;99.90;;;;;;5036723;28;20053;-73
2022/10/25 11:42:38;;;;;;;4.60;2.17;;;18.00;99.90;;;;;;5045637;28;20049;-73
2022/10/25 11:45:38;;;;;;;7.30;2.60;;;17.80;99.90;;;;;;5051163;28;20047;-73
2022/10/25 11:48:27;;;;;;;5.57;2.35;;;17.50;99.90;;;;;;5039007;28;20057;-76
2022/10/25 11:51:01;;;;;;;9.77;2.70;;;17.40;99.90;;;;;;5051779;28;20502;-72
2022/10/25 11:53:45;;;;;;;7.07;2.20;;;17.30;99.90;;;;;;5049981;28;20388;-73
2022/10/25 11:56:31;;;;;;;5.25;1.85;;;17.10;99.90;;;;;;5051595;28;20045;-73
2022/10/25 11:59:16;;;;;;;5.25;1.75;;;17.10;99.90;;;;;;5035563;28;20047;-73
2022/10/25 12:01:58;;;;;;;5.13;2.10;;;17.20;99.90;;;;;;5032786;28;20053;-78
2022/10/25 12:04:44;;;;;;;8.38;2.10;;;17.40;99.90;;;;;;5032424;28;20049;-73
2022/10/25 12:07:35;;;;;;;5.28;1.92;;;18.10;99.90;;;;;;5032259;28;20052;-73
2022/10/25 12:10:20;;;;;;;6.53;2.17;;;18.40;99.90;;;;;;5063105;28;20478;-74
2022/10/25 12:12:51;;;;;;;6.75;1.88;;;18.40;99.90;;;;;;5031755;28;20116;-77
2022/10/25 12:15:54;;;;;;;4.63;1.80;;;18.40;99.90;;;;;;5035156;28;20068;-75
2022/10/25 12:18:41;;;;;;;4.70;1.80;;;18.10;99.90;;;;;;5040085;28;20060;-73
2022/10/25 12:21:09;;;;;;;9.20;1.90;;;17.60;99.90;;;;;;5040613;28;20075;-74
2022/10/25 12:23:45;;;;;;;7.55;2.22;;;17.20;99.90;;;;;;5031638;28;20498;-75
2022/10/25 12:26:25;;;;;;;5.80;2.28;;;17.00;99.90;;;;;;5031116;28;20041;-72
2022/10/25 12:28:52;;;;;;;5.88;1.90;;;17.10;99.90;;;;;;5039475;28;20146;-76
2022/10/25 12:31:28;;;;;;;6.15;1.88;;;17.00;99.90;;;;;;5047336;28;20236;-77
2022/10/25 12:34:17;;;;;;;9.25;1.90;;;16.90;99.90;;;;;;5079144;28;20053;-74
2022/10/25 12:36:48;;;;;;;8.38;2.10;;;16.80;99.90;;;;;;5047888;28;20033;-77
2022/10/25 12:39:21;;;;;;;4.18;1.52;;;16.80;99.90;;;;;;5047937;28;20049;-72
2022/10/25 12:41:58;;;;;;;7.93;2.00;;;17.00;99.90;;;;;;5047573;28;20041;-77
2022/10/25 12:44:23;;;;;;;;;;;17.30;99.90;;;;;;5051910;28;20045;-73
2022/10/25 12:47:05;;;;;;;4.03;1.73;;;17.30;99.90;;;;;;5050495;28;20423;-78
2022/10/25 12:50:19;;;;;;;4.95;2.15;;;17.20;99.90;;;;;;5078934;28;20060;-78
2022/10/25 12:52:57;;;;;;;4.75;2.03;;;17.20;99.90;;;;;;5042355;28;20911;-78
2022/10/25 12:55:54;;;;;;;5.43;2.05;;;17.40;99.90;;;;;;5049069;28;20069;-72
2022/10/25 12:58:47;;;;;;;8.00;2.58;;;17.50;99.90;;;;;;5045617;28;20049;-74
2022/10/25 13:01:24;;;;;;;8.38;2.22;;;17.40;99.90;;;;;;5044048;28;20056;-72
2022/10/25 13:04:28;;;;;;;5.88;2.20;;;17.90;99.90;;;;;;5044142;28;20132;-77
2022/10/25 13:06:56;;;;;;;5.90;1.90;;;18.20;99.90;;;;;;5030597;28;20057;-72
2022/10/25 13:09:22;;;;;;;7.45;2.00;;;18.20;99.90;;;;;;5045678;28;20461;-75